createdAt,value
2023-07-28T00:01:11.617Z,99720.72
2023-07-28T00:03:38.475Z,99733.78
2023-07-28T00:06:05.449Z,99729.31
2023-07-28T00:08:33.656Z,99712.31
2023-07-28T00:11:00.510Z,99720.81
2023-07-28T00:13:27.472Z,99737.47
2023-07-28T00:15:54.434Z,99735.84
2023-07-28T00:18:22.684Z,99727.03
2023-07-28T00:20:49.465Z,99748.09
2023-07-28T00:23:16.334Z,99741.56
2023-07-28T00:25:43.048Z,99721.13
2023-07-28T00:28:10.020Z,99732.56
2023-07-28T00:30:36.971Z,99745.06
2023-07-28T00:33:03.988Z,99729.72
2023-07-28T00:35:30.738Z,99733.59
2023-07-28T00:37:57.723Z,99747.50
2023-07-28T00:40:24.934Z,99720.72
2023-07-28T00:42:51.872Z,99742.78
2023-07-28T00:45:18.802Z,99737.28
2023-07-28T00:47:46.316Z,99716.00
2023-07-28T00:50:13.725Z,99728.06
2023-07-28T00:52:42.495Z,99717.03
2023-07-28T00:55:10.443Z,99708.84
2023-07-28T00:57:37.339Z,99736.97
2023-07-28T01:00:04.569Z,99727.88
2023-07-28T01:02:31.948Z,99721.13
2023-07-28T01:04:59.829Z,99724.09
2023-07-28T01:07:35.838Z,99745.25
2023-07-28T01:10:20.576Z,99732.78
2023-07-28T01:12:47.349Z,99728.91
2023-07-28T01:15:16.320Z,99708.22
2023-07-28T01:17:44.266Z,99724.63
2023-07-28T01:20:12.153Z,99747.50
2023-07-28T01:22:59.481Z,99711.50
2023-07-28T01:25:45.312Z,99754.66
2023-07-28T01:28:14.554Z,99718.69
2023-07-28T01:30:41.720Z,99709.56
2023-07-28T01:33:09.545Z,99724.41
2023-07-28T01:35:40.050Z,99732.78
2023-07-28T01:38:07.104Z,99704.34
2023-07-28T01:40:34.166Z,99724.50
2023-07-28T01:43:02.566Z,99731.03
2023-07-28T01:45:29.396Z,99707.19
2023-07-28T01:47:56.417Z,99734.44
2023-07-28T01:50:23.413Z,99725.63
2023-07-28T01:52:50.417Z,99701.47
2023-07-28T01:55:17.302Z,99725.81
2023-07-28T01:57:55.343Z,99716.22
2023-07-28T02:00:22.317Z,99724.50
2023-07-28T02:02:50.051Z,99719.69
2023-07-28T02:05:17.396Z,99727.06
2023-07-28T02:07:44.556Z,99729.09
2023-07-28T02:10:12.341Z,99731.56
2023-07-28T02:12:40.492Z,99729.09
2023-07-28T02:15:08.150Z,99706.69
2023-07-28T02:17:35.397Z,99723.38
2023-07-28T02:20:04.992Z,99702.31
2023-07-28T02:22:32.980Z,99718.66
2023-07-28T02:25:06.424Z,99704.56
2023-07-28T02:27:33.527Z,99718.47
2023-07-28T02:30:02.448Z,99713.56
2023-07-28T02:32:30.751Z,99701.47
2023-07-28T02:34:57.839Z,99743.00
2023-07-28T02:37:28.296Z,99719.56
2023-07-28T02:39:55.262Z,99731.56
2023-07-28T02:42:22.831Z,99726.84
2023-07-28T02:47:32.826Z,99728.28
2023-07-28T02:49:59.842Z,99734.63
2023-07-28T02:52:27.089Z,99715.19
2023-07-28T02:54:56.892Z,99733.47
2023-07-28T02:57:26.185Z,99708.63
2023-07-28T02:59:53.570Z,99718.25
2023-07-28T03:02:23.840Z,99724.81
2023-07-28T03:04:53.076Z,99745.88
2023-07-28T03:07:20.354Z,99744.25
2023-07-28T03:09:49.081Z,99725.72
2023-07-28T03:12:19.423Z,99733.38
2023-07-28T03:14:50.580Z,99726.22
2023-07-28T03:17:21.477Z,99763.88
2023-07-28T03:19:50.718Z,99713.56
2023-07-28T03:22:21.676Z,99723.19
2023-07-28T03:24:52.885Z,99722.34
2023-07-28T03:27:19.998Z,99722.06
2023-07-28T03:29:47.148Z,99727.38
2023-07-28T03:32:14.375Z,99760.50
2023-07-28T03:34:44.004Z,99750.19
2023-07-28T03:37:10.988Z,99727.25
2023-07-28T03:39:38.921Z,99729.50
2023-07-28T03:42:05.945Z,99751.91
2023-07-28T03:44:33.086Z,99749.13
2023-07-28T03:47:00.076Z,99730.53
2023-07-28T03:49:27.233Z,99731.94
2023-07-28T03:51:54.176Z,99723.66
2023-07-28T03:54:23.764Z,99765.41
2023-07-28T03:57:01.757Z,99731.34
2023-07-28T03:59:33.838Z,99722.53
2023-07-28T04:02:07.735Z,99759.47
2023-07-28T04:04:44.355Z,99761.13
2023-07-28T04:07:14.898Z,99746.69
2023-07-28T04:09:41.714Z,99731.03
2023-07-28T04:12:12.120Z,99752.00
2023-07-28T04:14:38.997Z,99752.84
2023-07-28T04:17:06.193Z,99745.16
2023-07-28T04:19:33.225Z,99746.91
2023-07-28T04:22:01.444Z,99751.19
2023-07-28T04:24:28.585Z,99760.00
2023-07-28T04:26:58.105Z,99745.25
2023-07-28T04:29:25.679Z,99760.28
2023-07-28T04:31:52.497Z,99749.56
2023-07-28T04:34:19.508Z,99749.56
2023-07-28T04:36:46.305Z,99764.91
2023-07-28T04:39:13.065Z,99768.50
2023-07-28T04:41:40.369Z,99760.00
2023-07-28T04:44:07.339Z,99753.44
2023-07-28T04:46:34.481Z,99747.91
2023-07-28T04:49:04.368Z,99763.66
2023-07-28T04:51:31.169Z,99743.41
2023-07-28T04:53:58.455Z,99766.34
2023-07-28T04:56:25.212Z,99741.66
2023-07-28T04:58:51.986Z,99786.97
2023-07-28T05:01:19.545Z,99759.47
2023-07-28T05:03:46.426Z,99754.88
2023-07-28T05:06:13.035Z,99783.09
2023-07-28T05:08:39.727Z,99789.63
2023-07-28T05:11:06.305Z,99786.28
2023-07-28T05:13:32.878Z,99785.84
2023-07-28T05:15:59.464Z,99791.69
2023-07-28T05:18:26.016Z,99801.53
2023-07-28T05:20:52.647Z,99794.34
2023-07-28T05:23:19.245Z,99803.56
2023-07-28T05:25:45.866Z,99800.28
2023-07-28T05:28:12.469Z,99801.31
2023-07-28T05:30:39.137Z,99805.06
2023-07-28T05:33:05.829Z,99801.19
2023-07-28T05:35:32.416Z,99804.75
2023-07-28T05:37:59.091Z,99803.94
2023-07-28T05:40:25.652Z,99804.97
2023-07-28T05:42:52.218Z,99805.16
2023-07-28T05:45:18.881Z,99808.13
2023-07-28T05:47:45.761Z,99809.25
2023-07-28T05:50:12.795Z,99817.13
2023-07-28T05:52:39.375Z,99802.47
2023-07-28T05:55:06.474Z,99812.91
2023-07-28T05:57:33.064Z,99811.66
2023-07-28T05:59:59.669Z,99812.19
2023-07-28T06:02:26.307Z,99812.97
2023-07-28T06:04:54.312Z,99814.50
2023-07-28T06:07:20.961Z,99815.63
2023-07-28T06:09:47.583Z,99822.47
2023-07-28T06:12:14.660Z,99827.41
2023-07-28T06:14:41.291Z,99822.84
2023-07-28T06:17:08.495Z,99830.03
2023-07-28T06:19:54.255Z,99842.13
2023-07-28T06:22:20.976Z,99830.22
2023-07-28T06:24:47.626Z,99826.53
2023-07-28T06:27:14.390Z,99834.31
2023-07-28T06:29:41.195Z,99835.34
2023-07-28T06:32:08.347Z,99838.91
2023-07-28T06:34:34.964Z,99834.09
2023-07-28T06:37:01.534Z,99831.78
2023-07-28T06:39:28.640Z,99836.09
2023-07-28T06:41:55.241Z,99840.41
2023-07-28T06:44:21.813Z,99840.59
2023-07-28T06:46:49.257Z,99846.00
2023-07-28T06:49:16.091Z,99852.72
2023-07-28T06:51:42.729Z,99858.94
2023-07-28T06:54:13.791Z,99871.22
2023-07-28T06:56:41.478Z,99863.41
2023-07-28T06:59:15.730Z,99853.78
2023-07-28T07:01:44.219Z,99854.97
2023-07-28T07:04:10.860Z,99868.03
2023-07-28T07:06:37.438Z,99860.72
2023-07-28T07:09:04.888Z,99867.94
2023-07-28T07:11:31.472Z,99871.41
2023-07-28T07:13:58.124Z,99871.09
2023-07-28T07:16:25.012Z,99876.53
2023-07-28T07:18:54.755Z,99868.72
2023-07-28T07:21:21.438Z,99875.16
2023-07-28T07:23:48.664Z,99875.50
2023-07-28T07:26:15.516Z,99878.13
2023-07-28T07:28:42.143Z,99874.91
2023-07-28T07:31:16.199Z,99881.44
2023-07-28T07:33:43.551Z,99897.13
2023-07-28T07:36:18.035Z,99893.56
2023-07-28T07:38:48.575Z,99880.00
2023-07-28T07:41:22.047Z,99891.28
2023-07-28T07:43:49.754Z,99899.16
2023-07-28T07:46:17.305Z,99900.28
2023-07-28T07:48:44.474Z,99899.81
2023-07-28T07:51:12.042Z,99898.81
2023-07-28T07:53:38.799Z,99902.75
2023-07-28T07:56:06.181Z,99912.19
2023-07-28T07:58:32.822Z,99911.22
2023-07-28T08:01:00.037Z,99900.09
2023-07-28T08:03:26.920Z,99905.47
2023-07-28T08:05:53.829Z,99910.69
2023-07-28T08:08:21.133Z,99917.72
2023-07-28T08:10:48.653Z,99919.34
2023-07-28T08:13:15.990Z,99921.00
2023-07-28T08:15:46.351Z,99912.53
2023-07-28T08:18:14.288Z,99920.84
2023-07-28T08:20:41.234Z,99917.72
2023-07-28T08:23:08.120Z,99916.56
2023-07-28T08:25:35.921Z,99913.63
2023-07-28T08:28:03.061Z,99910.38
2023-07-28T08:30:29.722Z,99912.78
2023-07-28T08:32:56.367Z,99916.69
2023-07-28T08:35:23.551Z,99913.53
2023-07-28T08:37:50.251Z,99907.75
2023-07-28T08:40:17.886Z,99912.91
2023-07-28T08:42:45.473Z,99914.19
2023-07-28T08:45:12.219Z,99906.44
2023-07-28T08:47:39.403Z,99910.78
2023-07-28T08:50:07.322Z,99919.78
2023-07-28T08:52:34.258Z,99922.50
2023-07-28T08:55:01.090Z,99916.09
2023-07-28T08:57:28.871Z,99916.16
2023-07-28T08:59:56.114Z,99919.22
2023-07-28T09:02:23.192Z,99920.63
2023-07-28T09:04:50.532Z,99915.78
2023-07-28T09:07:17.371Z,99912.50
2023-07-28T09:09:44.579Z,99917.38
2023-07-28T09:12:11.207Z,99921.34
2023-07-28T09:14:39.035Z,99911.81
2023-07-28T09:17:14.198Z,99922.00
2023-07-28T09:19:52.322Z,99916.28
2023-07-28T09:22:19.622Z,99915.22
2023-07-28T09:24:46.327Z,99920.50
2023-07-28T09:27:26.879Z,99917.25
2023-07-28T09:29:56.434Z,99922.59
2023-07-28T09:32:32.158Z,99918.47
2023-07-28T09:35:09.768Z,99921.47
2023-07-28T09:37:41.638Z,99908.13
2023-07-28T09:40:13.845Z,99915.97
2023-07-28T09:42:44.655Z,99918.19
2023-07-28T09:45:26.686Z,99918.44
2023-07-28T09:48:03.977Z,99919.63
2023-07-28T09:50:34.047Z,99915.69
2023-07-28T09:53:04.128Z,99926.84
2023-07-28T09:55:31.003Z,99917.56
2023-07-28T09:58:03.655Z,99920.34
2023-07-28T10:00:30.743Z,99923.03
2023-07-28T10:03:00.505Z,99922.38
2023-07-28T10:05:28.597Z,99920.72
2023-07-28T10:07:55.766Z,99922.69
2023-07-28T10:10:22.559Z,99910.81
2023-07-28T10:12:53.705Z,99918.16
2023-07-28T10:15:21.980Z,99928.22
2023-07-28T10:17:56.432Z,99927.16
2023-07-28T10:20:52.584Z,99930.81
2023-07-28T10:23:26.072Z,99930.56
2023-07-28T10:26:16.609Z,99943.75
2023-07-28T10:28:44.845Z,99936.16
2023-07-28T10:33:46.372Z,99931.25
2023-07-28T10:36:16.608Z,99939.41
2023-07-28T10:38:44.980Z,99938.06
2023-07-28T10:41:12.980Z,99938.19
2023-07-28T10:43:40.408Z,99939.47
2023-07-28T10:46:10.007Z,99932.47
2023-07-28T10:48:38.814Z,99931.56
2023-07-28T10:51:05.458Z,99938.25
2023-07-28T10:53:32.713Z,99939.03
2023-07-28T10:56:00.328Z,99941.38
2023-07-28T10:58:27.159Z,99946.06
2023-07-28T11:00:53.848Z,99944.06
2023-07-28T11:03:21.617Z,99939.53
2023-07-28T11:05:50.752Z,99944.63
2023-07-28T11:08:17.778Z,99943.72
2023-07-28T11:10:44.753Z,99946.03
2023-07-28T11:13:26.633Z,99935.34
2023-07-28T11:15:58.948Z,99939.06
2023-07-28T11:18:27.457Z,99939.31
2023-07-28T11:20:54.176Z,99937.47
2023-07-28T11:23:20.818Z,99932.34
2023-07-28T11:25:48.701Z,99933.75
2023-07-28T11:28:15.638Z,99932.84
2023-07-28T11:30:43.669Z,99934.78
2023-07-28T11:33:14.203Z,99934.25
2023-07-28T11:35:41.845Z,99939.59
2023-07-28T11:38:09.665Z,99938.88
2023-07-28T11:40:36.834Z,99936.34
2023-07-28T11:43:04.039Z,99930.06
2023-07-28T11:45:31.273Z,99935.41
2023-07-28T11:48:08.186Z,99931.19
2023-07-28T11:50:42.998Z,99934.00
2023-07-28T11:53:11.044Z,99922.84
2023-07-28T11:55:38.762Z,99928.41
2023-07-28T11:58:09.070Z,99926.28
2023-07-28T12:00:37.338Z,99927.94
2023-07-28T12:03:11.480Z,99923.91
2023-07-28T12:08:13.358Z,99916.81
2023-07-28T12:21:01.455Z,99915.78
2023-07-28T12:25:59.985Z,99907.16
2023-07-28T12:28:27.013Z,99909.91
2023-07-28T12:30:57.534Z,99912.63
2023-07-28T12:33:24.366Z,99913.53
2023-07-28T12:35:53.013Z,99903.50
2023-07-28T12:48:20.985Z,99916.44
2023-07-28T12:50:48.230Z,99917.88
2023-07-28T12:53:18.643Z,99918.41
2023-07-28T13:03:18.118Z,99917.28
2023-07-28T13:05:45.268Z,99921.22
2023-07-28T13:08:12.031Z,99920.41
2023-07-28T13:15:39.037Z,99923.53
2023-07-28T13:18:05.880Z,99915.41
2023-07-28T13:20:34.740Z,99924.19
2023-07-28T13:23:01.312Z,99913.84
2023-07-28T13:28:13.545Z,99921.94
2023-07-28T13:30:40.466Z,99927.34
2023-07-28T13:33:08.194Z,99922.81
2023-07-28T13:35:35.032Z,99942.56
2023-07-28T13:38:01.892Z,99954.59
2023-07-28T13:40:28.771Z,99965.94
2023-07-28T13:42:56.579Z,99972.22
2023-07-28T13:45:23.737Z,99984.97
2023-07-28T13:47:51.365Z,99989.22
2023-07-28T13:50:18.146Z,99990.53
2023-07-28T13:52:44.967Z,99988.94
2023-07-28T13:55:13.279Z,99976.69
2023-07-28T13:57:40.729Z,99979.50
2023-07-28T14:00:11.092Z,99976.88
2023-07-28T14:02:38.728Z,99978.41
2023-07-28T14:05:06.643Z,99971.38
2023-07-28T14:07:36.027Z,99984.31
2023-07-28T14:10:07.675Z,99973.69
2023-07-28T14:12:34.705Z,99968.13
2023-07-28T14:15:01.435Z,99961.88
2023-07-28T14:17:28.118Z,99964.81
2023-07-28T14:19:54.781Z,99958.03
2023-07-28T14:22:21.431Z,99959.38
2023-07-28T14:24:48.003Z,99952.31
2023-07-28T14:27:14.632Z,99950.38
2023-07-28T14:29:41.281Z,99946.59
2023-07-28T14:32:09.081Z,99956.38
2023-07-28T14:34:36.308Z,99942.69
2023-07-28T14:37:06.985Z,99957.19
2023-07-28T14:39:33.870Z,99950.91
2023-07-28T14:42:00.773Z,99947.41
2023-07-28T14:44:27.612Z,99952.16
2023-07-28T14:46:54.227Z,99941.34
2023-07-28T14:49:20.963Z,99924.97
2023-07-28T14:51:47.814Z,99929.97
2023-07-28T14:54:14.395Z,99933.00
2023-07-28T14:56:41.004Z,99933.50
2023-07-28T14:59:07.606Z,99934.03
2023-07-28T15:01:34.865Z,99934.16
2023-07-28T15:04:03.974Z,99936.88
2023-07-28T15:06:31.538Z,99930.84
2023-07-28T15:08:58.534Z,99930.50
2023-07-28T15:11:25.665Z,99935.41
2023-07-28T15:13:53.289Z,99931.34
2023-07-28T15:16:21.022Z,99934.28
2023-07-28T15:18:47.677Z,99929.66
2023-07-28T15:21:14.281Z,99939.66
2023-07-28T15:23:41.032Z,99935.44
2023-07-28T15:26:07.939Z,99937.53
2023-07-28T15:28:34.626Z,99944.97
2023-07-28T15:31:01.355Z,99943.09
2023-07-28T15:33:30.459Z,99935.63
2023-07-28T15:35:57.519Z,99933.72
2023-07-28T15:38:24.231Z,99918.69
2023-07-28T15:40:50.961Z,99925.19
2023-07-28T15:43:17.684Z,99926.91
2023-07-28T15:45:44.395Z,99930.75
2023-07-28T15:48:11.109Z,99928.31
2023-07-28T15:50:37.827Z,99933.53
2023-07-28T15:53:04.475Z,99927.09
2023-07-28T15:55:31.215Z,99917.25
2023-07-28T15:57:58.118Z,99920.94
2023-07-28T16:00:24.964Z,99918.31
2023-07-28T16:02:51.667Z,99923.44
2023-07-28T16:05:18.938Z,99918.94
2023-07-28T16:07:45.561Z,99916.09
2023-07-28T16:10:12.391Z,99918.78
2023-07-28T16:12:39.148Z,99925.53
2023-07-28T16:15:06.216Z,99921.47
2023-07-28T16:17:32.928Z,99914.34
2023-07-28T16:19:59.818Z,99920.25
2023-07-28T16:22:26.486Z,99918.03
2023-07-28T16:24:53.430Z,99918.94
2023-07-28T16:27:20.131Z,99912.53
2023-07-28T16:29:48.642Z,99922.38
2023-07-28T16:32:16.844Z,99928.19
2023-07-28T16:34:43.521Z,99924.31
2023-07-28T16:37:10.207Z,99926.53
2023-07-28T16:39:36.898Z,99921.97
2023-07-28T16:42:04.118Z,99927.09
2023-07-28T16:44:30.995Z,99931.34
2023-07-28T16:46:57.687Z,99926.97
2023-07-28T16:49:24.449Z,99933.50
2023-07-28T16:51:51.093Z,99925.59
2023-07-28T16:54:17.751Z,99929.44
2023-07-28T16:56:44.368Z,99928.66
2023-07-28T16:59:11.261Z,99933.56
2023-07-28T17:01:39.155Z,99932.66
2023-07-28T17:04:06.072Z,99924.63
2023-07-28T17:06:34.755Z,99922.44
2023-07-28T17:09:01.402Z,99918.66
2023-07-28T17:11:27.991Z,99922.50
2023-07-28T17:13:54.813Z,99928.44
2023-07-28T17:16:23.342Z,99932.38
2023-07-28T17:18:50.011Z,99931.22
2023-07-28T17:21:16.936Z,99927.75
2023-07-28T17:23:43.954Z,99932.50
2023-07-28T17:26:11.232Z,99940.31
2023-07-28T17:28:39.394Z,99952.16
2023-07-28T17:31:06.388Z,99947.97
2023-07-28T17:33:33.117Z,99953.41
2023-07-28T17:36:01.884Z,99961.88
2023-07-28T17:38:30.084Z,99958.38
2023-07-28T17:40:56.848Z,99968.72
2023-07-28T17:43:23.631Z,99972.53
2023-07-28T17:45:50.341Z,99963.56
2023-07-28T17:48:17.302Z,99956.13
2023-07-28T17:50:44.285Z,99960.56
2023-07-28T17:53:10.956Z,99950.31
2023-07-28T17:55:37.856Z,99958.22
2023-07-28T17:58:04.477Z,99956.78
2023-07-28T18:00:31.469Z,99955.56
2023-07-28T18:02:58.154Z,99961.13
2023-07-28T18:05:24.881Z,99968.56
2023-07-28T18:07:51.577Z,99948.78
2023-07-28T18:10:18.260Z,99953.41
2023-07-28T18:32:00.812Z,99956.03
2023-07-28T18:34:28.351Z,99948.16
2023-07-28T18:36:55.263Z,99957.66
2023-07-28T18:39:21.955Z,99950.66
2023-07-28T18:41:48.697Z,99947.25
2023-07-28T18:44:15.248Z,99955.94
2023-07-28T18:46:41.919Z,99953.81
2023-07-28T18:49:09.896Z,99957.59
2023-07-28T18:51:37.010Z,99949.09
2023-07-28T18:54:03.968Z,99949.81
2023-07-28T18:56:30.575Z,99965.06
2023-07-28T18:58:57.144Z,99971.47
2023-07-28T19:01:23.765Z,99968.72
2023-07-28T19:03:50.503Z,99970.00
2023-07-28T19:06:21.326Z,99966.72
2023-07-28T19:08:51.514Z,99968.22
2023-07-28T19:11:18.068Z,99968.72
2023-07-28T19:13:45.455Z,99969.38
2023-07-28T19:16:12.172Z,99966.09
2023-07-28T19:18:38.774Z,99973.94
2023-07-28T19:21:05.623Z,99969.72
2023-07-28T19:23:32.902Z,99965.47
2023-07-28T19:25:59.627Z,99969.38
2023-07-28T19:28:26.321Z,99976.25
2023-07-28T19:30:55.681Z,99968.75
2023-07-28T19:33:22.351Z,99963.84
2023-07-28T19:35:48.960Z,99951.25
2023-07-28T19:38:16.227Z,99969.06
2023-07-28T19:40:42.827Z,99960.25
2023-07-28T19:43:09.437Z,99974.63
2023-07-28T19:45:36.023Z,99972.03
2023-07-28T19:48:03.079Z,99980.69
2023-07-28T19:53:03.341Z,99974.47
2023-07-28T19:55:29.943Z,99985.13
2023-07-28T19:57:56.603Z,99981.34
2023-07-28T20:00:23.556Z,99981.50
2023-07-28T20:02:50.277Z,99976.59
2023-07-28T20:05:20.681Z,99985.09
2023-07-28T20:07:47.345Z,99986.56
2023-07-28T20:10:13.941Z,99988.53
2023-07-28T20:12:40.602Z,99983.13
2023-07-28T20:15:07.861Z,99992.63
2023-07-28T20:17:34.467Z,99979.72
2023-07-28T20:20:01.062Z,99983.41
2023-07-28T20:22:27.643Z,99994.03
2023-07-28T20:24:54.264Z,99981.13
2023-07-28T20:27:21.016Z,99972.63
2023-07-28T20:29:47.580Z,99977.69
2023-07-28T20:32:14.143Z,99967.56
2023-07-28T20:34:40.745Z,99983.22
2023-07-28T20:37:07.317Z,99967.53
2023-07-28T20:39:33.883Z,99970.13
2023-07-28T20:42:00.500Z,99973.25
2023-07-28T20:44:27.176Z,99969.47
2023-07-28T20:49:20.321Z,99972.25
2023-07-28T20:51:46.890Z,99980.56
2023-07-28T20:54:13.489Z,99969.47
2023-07-28T20:56:40.060Z,99981.69
2023-07-28T20:59:06.631Z,99978.94
2023-07-28T21:01:33.295Z,99988.25
2023-07-28T21:04:00.593Z,99986.63
2023-07-28T21:06:27.202Z,99983.34
2023-07-28T21:08:53.834Z,99981.69
2023-07-28T21:11:20.412Z,99990.34
2023-07-28T21:13:46.971Z,99983.66
2023-07-28T21:16:14.634Z,99986.44
2023-07-28T21:18:41.238Z,99984.94
2023-07-28T21:21:07.925Z,99990.59
2023-07-28T21:23:35.399Z,99997.78
2023-07-28T21:26:06.562Z,100002.50
2023-07-28T21:28:33.615Z,100003.78
2023-07-28T21:31:00.394Z,99999.72
2023-07-28T21:33:27.024Z,99996.88
2023-07-28T21:35:53.997Z,99997.19
2023-07-28T21:38:20.551Z,99998.75
2023-07-28T21:40:47.292Z,100004.94
2023-07-28T21:43:13.859Z,100003.94
2023-07-28T21:45:40.581Z,100004.25
2023-07-28T21:48:07.244Z,100005.22
2023-07-28T21:50:33.854Z,99999.78
2023-07-28T21:53:00.431Z,99992.72
2023-07-28T21:55:27.131Z,99998.91
2023-07-28T21:57:54.052Z,99995.63
2023-07-28T22:00:20.748Z,99995.13
2023-07-28T22:02:47.487Z,99983.03
2023-07-28T22:05:14.221Z,99982.53
2023-07-28T22:07:41.259Z,99979.47
2023-07-28T22:10:08.511Z,99985.81
2023-07-28T22:12:35.345Z,99973.91
2023-07-28T22:15:02.496Z,99980.78
2023-07-28T22:17:29.178Z,99978.63
2023-07-28T22:19:55.762Z,99984.16
2023-07-28T22:22:22.321Z,99967.53
2023-07-28T22:24:49.069Z,99971.44
2023-07-28T22:27:15.642Z,99960.00
2023-07-28T22:29:42.428Z,99957.25
2023-07-28T22:32:09.091Z,99951.19
2023-07-28T22:34:35.952Z,99958.97
2023-07-28T22:37:02.527Z,99961.25
2023-07-28T22:39:29.631Z,99952.25
2023-07-28T22:41:56.228Z,99957.59
2023-07-28T22:44:22.887Z,99961.63
2023-07-28T22:46:49.611Z,99950.84
2023-07-28T22:49:16.221Z,99965.03
2023-07-28T22:51:42.811Z,99962.38
2023-07-28T22:54:09.449Z,99959.09
2023-07-28T22:56:36.393Z,99961.38
2023-07-28T22:59:03.714Z,99957.47
2023-07-28T23:01:30.762Z,99955.00
2023-07-28T23:03:58.131Z,99955.66
2023-07-28T23:06:24.757Z,99956.13
2023-07-28T23:08:51.359Z,99952.94
2023-07-28T23:11:17.912Z,99949.16
2023-07-28T23:13:44.509Z,99956.22
2023-07-28T23:16:11.277Z,99947.91
2023-07-28T23:18:37.873Z,99941.72
2023-07-28T23:21:04.519Z,99930.66
2023-07-28T23:23:31.116Z,99930.34
2023-07-28T23:25:57.730Z,99929.53
2023-07-28T23:28:24.410Z,99920.88
2023-07-28T23:30:51.065Z,99924.78
2023-07-28T23:33:17.761Z,99925.63
2023-07-28T23:35:44.521Z,99926.25
2023-07-28T23:38:11.083Z,99923.00
2023-07-28T23:40:37.731Z,99930.13
2023-07-28T23:43:05.415Z,99926.88
2023-07-28T23:45:32.043Z,99933.41
2023-07-28T23:47:58.761Z,99914.84
2023-07-28T23:50:25.385Z,99921.72
2023-07-28T23:52:51.924Z,99923.84
2023-07-28T23:55:18.534Z,99913.28
2023-07-28T23:57:45.113Z,99909.88
